sensor_id;sensor_type;location;lat;lon;timestamp;P1;durP1;ratioP1;P2;durP2;ratioP2
16393;SDS011;8306;51.128;4.476;2023-07-20T00:02:08;3.07;;;2.83;;
16393;SDS011;8306;51.128;4.476;2023-07-20T00:04:34;3.43;;;2.97;;
16393;SDS011;8306;51.128;4.476;2023-07-20T00:07:01;5.33;;;3.13;;
16393;SDS011;8306;51.128;4.476;2023-07-20T00:09:27;4.47;;;3.13;;
16393;SDS011;8306;51.128;4.476;2023-07-20T00:11:54;4.10;;;3.10;;
16393;SDS011;8306;51.128;4.476;2023-07-20T00:14:20;4.40;;;2.90;;
16393;SDS011;8306;51.128;4.476;2023-07-20T00:16:47;4.27;;;2.77;;
16393;SDS011;8306;51.128;4.476;2023-07-20T00:19:13;4.07;;;3.33;;
16393;SDS011;8306;51.128;4.476;2023-07-20T00:21:40;3.50;;;2.90;;
16393;SDS011;8306;51.128;4.476;2023-07-20T00:24:06;6.97;;;3.33;;
16393;SDS011;8306;51.128;4.476;2023-07-20T00:26:33;5.13;;;3.30;;
16393;SDS011;8306;51.128;4.476;2023-07-20T00:28:59;4.53;;;3.50;;
16393;SDS011;8306;51.128;4.476;2023-07-20T00:31:26;5.37;;;3.17;;
16393;SDS011;8306;51.128;4.476;2023-07-20T00:33:52;9.30;;;4.23;;
16393;SDS011;8306;51.128;4.476;2023-07-20T00:36:19;7.27;;;3.60;;
16393;SDS011;8306;51.128;4.476;2023-07-20T00:38:45;5.00;;;3.53;;
16393;SDS011;8306;51.128;4.476;2023-07-20T00:41:11;5.50;;;3.63;;
16393;SDS011;8306;51.128;4.476;2023-07-20T00:43:38;6.90;;;3.77;;
16393;SDS011;8306;51.128;4.476;2023-07-20T00:46:04;4.80;;;3.77;;
16393;SDS011;8306;51.128;4.476;2023-07-20T00:48:31;5.47;;;4.13;;
16393;SDS011;8306;51.128;4.476;2023-07-20T00:50:58;6.13;;;3.70;;
16393;SDS011;8306;51.128;4.476;2023-07-20T00:53:24;4.90;;;3.73;;
16393;SDS011;8306;51.128;4.476;2023-07-20T00:55:50;5.53;;;4.30;;
16393;SDS011;8306;51.128;4.476;2023-07-20T00:58:17;5.07;;;3.73;;
16393;SDS011;8306;51.128;4.476;2023-07-20T01:00:44;5.97;;;3.47;;
16393;SDS011;8306;51.128;4.476;2023-07-20T01:03:10;5.20;;;3.80;;
16393;SDS011;8306;51.128;4.476;2023-07-20T01:05:41;6.07;;;4.10;;
16393;SDS011;8306;51.128;4.476;2023-07-20T01:10:57;6.83;;;4.00;;
16393;SDS011;8306;51.128;4.476;2023-07-20T01:13:25;7.87;;;4.60;;
16393;SDS011;8306;51.128;4.476;2023-07-20T01:15:57;10.30;;;4.90;;
16393;SDS011;8306;51.128;4.476;2023-07-20T01:18:27;6.20;;;4.50;;
16393;SDS011;8306;51.128;4.476;2023-07-20T01:20:59;6.43;;;4.80;;
16393;SDS011;8306;51.128;4.476;2023-07-20T01:23:28;5.97;;;4.93;;
16393;SDS011;8306;51.128;4.476;2023-07-20T01:28:35;8.07;;;5.37;;
16393;SDS011;8306;51.128;4.476;2023-07-20T01:31:15;6.77;;;4.90;;
16393;SDS011;8306;51.128;4.476;2023-07-20T01:33:42;5.10;;;4.50;;
16393;SDS011;8306;51.128;4.476;2023-07-20T01:36:09;6.57;;;5.10;;
16393;SDS011;8306;51.128;4.476;2023-07-20T01:38:36;7.13;;;4.90;;
16393;SDS011;8306;51.128;4.476;2023-07-20T01:41:02;8.53;;;5.20;;
16393;SDS011;8306;51.128;4.476;2023-07-20T01:43:28;5.80;;;4.33;;
16393;SDS011;8306;51.128;4.476;2023-07-20T01:45:55;7.00;;;5.50;;
16393;SDS011;8306;51.128;4.476;2023-07-20T01:48:21;7.67;;;5.00;;
16393;SDS011;8306;51.128;4.476;2023-07-20T01:50:48;7.27;;;5.27;;
16393;SDS011;8306;51.128;4.476;2023-07-20T01:53:14;9.73;;;4.57;;
16393;SDS011;8306;51.128;4.476;2023-07-20T01:55:41;6.90;;;4.87;;
16393;SDS011;8306;51.128;4.476;2023-07-20T01:58:07;6.20;;;4.33;;
16393;SDS011;8306;51.128;4.476;2023-07-20T02:00:34;6.03;;;4.97;;
16393;SDS011;8306;51.128;4.476;2023-07-20T02:03:00;7.43;;;5.37;;
16393;SDS011;8306;51.128;4.476;2023-07-20T02:05:27;6.03;;;4.47;;
16393;SDS011;8306;51.128;4.476;2023-07-20T02:07:53;8.30;;;5.50;;
16393;SDS011;8306;51.128;4.476;2023-07-20T02:10:19;5.57;;;5.07;;
16393;SDS011;8306;51.128;4.476;2023-07-20T02:12:46;6.87;;;4.60;;
16393;SDS011;8306;51.128;4.476;2023-07-20T02:15:12;7.17;;;5.47;;
16393;SDS011;8306;51.128;4.476;2023-07-20T02:17:39;5.73;;;5.13;;
16393;SDS011;8306;51.128;4.476;2023-07-20T02:20:05;11.90;;;5.93;;
16393;SDS011;8306;51.128;4.476;2023-07-20T02:22:32;7.27;;;5.40;;
16393;SDS011;8306;51.128;4.476;2023-07-20T02:24:58;9.57;;;5.90;;
16393;SDS011;8306;51.128;4.476;2023-07-20T02:27:25;7.33;;;5.63;;
16393;SDS011;8306;51.128;4.476;2023-07-20T02:29:51;6.43;;;5.17;;
16393;SDS011;8306;51.128;4.476;2023-07-20T02:32:18;6.20;;;5.50;;
16393;SDS011;8306;51.128;4.476;2023-07-20T02:34:44;11.03;;;6.20;;
16393;SDS011;8306;51.128;4.476;2023-07-20T02:37:11;6.03;;;5.50;;
16393;SDS011;8306;51.128;4.476;2023-07-20T02:39:37;6.20;;;5.60;;
16393;SDS011;8306;51.128;4.476;2023-07-20T02:42:04;7.97;;;5.90;;
16393;SDS011;8306;51.128;4.476;2023-07-20T02:44:30;5.73;;;5.10;;
16393;SDS011;8306;51.128;4.476;2023-07-20T02:46:57;6.33;;;5.47;;
16393;SDS011;8306;51.128;4.476;2023-07-20T02:49:23;6.27;;;5.67;;
16393;SDS011;8306;51.128;4.476;2023-07-20T02:51:50;6.00;;;5.33;;
16393;SDS011;8306;51.128;4.476;2023-07-20T02:54:16;5.87;;;5.33;;
16393;SDS011;8306;51.128;4.476;2023-07-20T02:56:43;5.87;;;5.27;;
16393;SDS011;8306;51.128;4.476;2023-07-20T02:59:09;5.53;;;5.03;;
16393;SDS011;8306;51.128;4.476;2023-07-20T03:01:36;5.47;;;4.97;;
16393;SDS011;8306;51.128;4.476;2023-07-20T03:04:02;7.23;;;5.63;;
16393;SDS011;8306;51.128;4.476;2023-07-20T03:06:29;6.37;;;5.70;;
16393;SDS011;8306;51.128;4.476;2023-07-20T03:08:56;5.67;;;5.17;;
16393;SDS011;8306;51.128;4.476;2023-07-20T03:11:22;6.53;;;5.60;;
16393;SDS011;8306;51.128;4.476;2023-07-20T03:13:49;6.63;;;4.83;;
16393;SDS011;8306;51.128;4.476;2023-07-20T03:16:17;5.37;;;4.87;;
16393;SDS011;8306;51.128;4.476;2023-07-20T03:18:42;6.00;;;5.50;;
16393;SDS011;8306;51.128;4.476;2023-07-20T03:21:08;6.50;;;5.83;;
16393;SDS011;8306;51.128;4.476;2023-07-20T03:23:34;6.93;;;5.80;;
16393;SDS011;8306;51.128;4.476;2023-07-20T03:26:01;5.73;;;5.23;;
16393;SDS011;8306;51.128;4.476;2023-07-20T03:28:27;6.43;;;5.80;;
16393;SDS011;8306;51.128;4.476;2023-07-20T03:30:57;5.60;;;4.90;;
16393;SDS011;8306;51.128;4.476;2023-07-20T03:33:27;6.07;;;5.57;;
16393;SDS011;8306;51.128;4.476;2023-07-20T03:35:53;9.13;;;6.07;;
16393;SDS011;8306;51.128;4.476;2023-07-20T03:38:20;6.43;;;5.03;;
16393;SDS011;8306;51.128;4.476;2023-07-20T03:40:52;5.60;;;5.10;;
16393;SDS011;8306;51.128;4.476;2023-07-20T03:43:15;5.67;;;5.17;;
16393;SDS011;8306;51.128;4.476;2023-07-20T03:45:42;6.47;;;5.80;;
16393;SDS011;8306;51.128;4.476;2023-07-20T03:48:08;6.97;;;6.23;;
16393;SDS011;8306;51.128;4.476;2023-07-20T03:50:35;6.77;;;6.17;;
16393;SDS011;8306;51.128;4.476;2023-07-20T03:53:01;7.00;;;6.40;;
16393;SDS011;8306;51.128;4.476;2023-07-20T03:55:28;7.47;;;6.77;;
16393;SDS011;8306;51.128;4.476;2023-07-20T03:57:54;8.07;;;7.37;;
16393;SDS011;8306;51.128;4.476;2023-07-20T04:00:21;7.07;;;6.50;;
16393;SDS011;8306;51.128;4.476;2023-07-20T04:02:47;8.20;;;7.50;;
16393;SDS011;8306;51.128;4.476;2023-07-20T04:05:13;7.33;;;6.70;;
16393;SDS011;8306;51.128;4.476;2023-07-20T04:07:40;7.57;;;6.80;;
16393;SDS011;8306;51.128;4.476;2023-07-20T04:10:06;7.27;;;6.67;;
16393;SDS011;8306;51.128;4.476;2023-07-20T04:12:33;7.03;;;6.53;;
16393;SDS011;8306;51.128;4.476;2023-07-20T04:14:59;7.60;;;7.07;;
16393;SDS011;8306;51.128;4.476;2023-07-20T04:17:26;7.33;;;6.70;;
16393;SDS011;8306;51.128;4.476;2023-07-20T04:19:52;9.00;;;8.20;;
16393;SDS011;8306;51.128;4.476;2023-07-20T04:22:19;8.33;;;7.53;;
16393;SDS011;8306;51.128;4.476;2023-07-20T04:24:45;6.83;;;6.30;;
16393;SDS011;8306;51.128;4.476;2023-07-20T04:27:12;7.80;;;7.20;;
16393;SDS011;8306;51.128;4.476;2023-07-20T04:29:38;7.83;;;7.23;;
16393;SDS011;8306;51.128;4.476;2023-07-20T04:32:05;7.40;;;6.73;;
16393;SDS011;8306;51.128;4.476;2023-07-20T04:34:31;8.47;;;7.67;;
16393;SDS011;8306;51.128;4.476;2023-07-20T04:36:58;8.20;;;6.77;;
16393;SDS011;8306;51.128;4.476;2023-07-20T04:39:24;7.60;;;6.90;;
16393;SDS011;8306;51.128;4.476;2023-07-20T04:41:51;7.30;;;6.70;;
16393;SDS011;8306;51.128;4.476;2023-07-20T04:44:17;7.33;;;6.73;;
16393;SDS011;8306;51.128;4.476;2023-07-20T04:46:44;6.57;;;6.03;;
16393;SDS011;8306;51.128;4.476;2023-07-20T04:49:10;6.90;;;6.33;;
16393;SDS011;8306;51.128;4.476;2023-07-20T04:51:37;6.37;;;5.97;;
16393;SDS011;8306;51.128;4.476;2023-07-20T04:54:03;6.73;;;6.23;;
16393;SDS011;8306;51.128;4.476;2023-07-20T04:56:30;6.77;;;6.17;;
16393;SDS011;8306;51.128;4.476;2023-07-20T04:58:56;6.40;;;6.00;;
16393;SDS011;8306;51.128;4.476;2023-07-20T05:01:23;6.47;;;5.97;;
16393;SDS011;8306;51.128;4.476;2023-07-20T05:03:49;6.60;;;6.20;;
16393;SDS011;8306;51.128;4.476;2023-07-20T05:06:16;6.97;;;6.47;;
16393;SDS011;8306;51.128;4.476;2023-07-20T05:08:42;6.43;;;5.93;;
16393;SDS011;8306;51.128;4.476;2023-07-20T05:11:09;6.93;;;6.40;;
16393;SDS011;8306;51.128;4.476;2023-07-20T05:13:35;6.40;;;5.80;;
16393;SDS011;8306;51.128;4.476;2023-07-20T05:16:02;6.27;;;5.77;;
16393;SDS011;8306;51.128;4.476;2023-07-20T05:18:28;6.60;;;6.10;;
16393;SDS011;8306;51.128;4.476;2023-07-20T05:20:55;7.00;;;6.40;;
16393;SDS011;8306;51.128;4.476;2023-07-20T05:23:21;6.60;;;5.70;;
16393;SDS011;8306;51.128;4.476;2023-07-20T05:25:57;6.13;;;5.53;;
16393;SDS011;8306;51.128;4.476;2023-07-20T05:28:19;6.30;;;5.80;;
16393;SDS011;8306;51.128;4.476;2023-07-20T05:30:46;5.90;;;5.50;;
16393;SDS011;8306;51.128;4.476;2023-07-20T05:33:12;6.03;;;5.53;;
16393;SDS011;8306;51.128;4.476;2023-07-20T05:35:39;5.90;;;5.40;;
16393;SDS011;8306;51.128;4.476;2023-07-20T05:38:05;5.53;;;5.13;;
16393;SDS011;8306;51.128;4.476;2023-07-20T05:40:32;7.07;;;6.47;;
16393;SDS011;8306;51.128;4.476;2023-07-20T05:42:58;5.77;;;5.37;;
16393;SDS011;8306;51.128;4.476;2023-07-20T05:45:25;6.80;;;5.40;;
16393;SDS011;8306;51.128;4.476;2023-07-20T05:47:51;5.63;;;5.23;;
16393;SDS011;8306;51.128;4.476;2023-07-20T05:50:18;4.73;;;4.33;;
16393;SDS011;8306;51.128;4.476;2023-07-20T05:52:44;5.43;;;5.03;;
16393;SDS011;8306;51.128;4.476;2023-07-20T05:55:11;6.13;;;5.63;;
16393;SDS011;8306;51.128;4.476;2023-07-20T05:57:37;5.90;;;5.50;;
16393;SDS011;8306;51.128;4.476;2023-07-20T06:00:04;5.07;;;4.77;;
16393;SDS011;8306;51.128;4.476;2023-07-20T06:02:30;6.40;;;5.87;;
16393;SDS011;8306;51.128;4.476;2023-07-20T06:04:57;6.07;;;5.67;;
16393;SDS011;8306;51.128;4.476;2023-07-20T06:07:23;5.80;;;5.40;;
16393;SDS011;8306;51.128;4.476;2023-07-20T06:09:50;5.30;;;4.90;;
16393;SDS011;8306;51.128;4.476;2023-07-20T06:12:16;4.93;;;4.60;;
16393;SDS011;8306;51.128;4.476;2023-07-20T06:14:43;4.33;;;4.03;;
16393;SDS011;8306;51.128;4.476;2023-07-20T06:17:09;3.43;;;3.23;;
16393;SDS011;8306;51.128;4.476;2023-07-20T06:19:36;4.03;;;3.73;;
16393;SDS011;8306;51.128;4.476;2023-07-20T06:22:02;2.60;;;2.40;;
16393;SDS011;8306;51.128;4.476;2023-07-20T06:24:29;2.93;;;2.73;;
16393;SDS011;8306;51.128;4.476;2023-07-20T06:26:55;2.80;;;2.60;;
16393;SDS011;8306;51.128;4.476;2023-07-20T06:29:22;3.47;;;2.57;;
16393;SDS011;8306;51.128;4.476;2023-07-20T06:31:48;3.50;;;3.20;;
16393;SDS011;8306;51.128;4.476;2023-07-20T06:34:15;3.80;;;3.60;;
16393;SDS011;8306;51.128;4.476;2023-07-20T06:36:41;4.27;;;3.97;;
16393;SDS011;8306;51.128;4.476;2023-07-20T06:39:07;3.90;;;3.60;;
16393;SDS011;8306;51.128;4.476;2023-07-20T06:41:34;5.70;;;5.30;;
16393;SDS011;8306;51.128;4.476;2023-07-20T06:44:00;4.80;;;4.60;;
16393;SDS011;8306;51.128;4.476;2023-07-20T06:46:27;4.63;;;4.37;;
16393;SDS011;8306;51.128;4.476;2023-07-20T06:48:53;5.70;;;5.30;;
16393;SDS011;8306;51.128;4.476;2023-07-20T06:51:20;5.37;;;5.07;;
16393;SDS011;8306;51.128;4.476;2023-07-20T06:53:46;5.00;;;4.70;;
16393;SDS011;8306;51.128;4.476;2023-07-20T06:56:13;5.63;;;5.13;;
16393;SDS011;8306;51.128;4.476;2023-07-20T06:58:39;5.30;;;5.00;;
16393;SDS011;8306;51.128;4.476;2023-07-20T07:01:09;4.87;;;4.57;;
16393;SDS011;8306;51.128;4.476;2023-07-20T07:03:35;5.13;;;4.73;;
16393;SDS011;8306;51.128;4.476;2023-07-20T07:06:02;5.00;;;4.60;;
16393;SDS011;8306;51.128;4.476;2023-07-20T07:08:28;6.20;;;5.70;;
16393;SDS011;8306;51.128;4.476;2023-07-20T07:10:54;5.10;;;4.70;;
16393;SDS011;8306;51.128;4.476;2023-07-20T07:13:21;4.63;;;4.23;;
16393;SDS011;8306;51.128;4.476;2023-07-20T07:15:47;4.40;;;4.10;;
16393;SDS011;8306;51.128;4.476;2023-07-20T07:18:14;4.07;;;3.77;;
16393;SDS011;8306;51.128;4.476;2023-07-20T07:20:40;3.30;;;3.10;;
16393;SDS011;8306;51.128;4.476;2023-07-20T07:23:07;4.30;;;4.00;;
16393;SDS011;8306;51.128;4.476;2023-07-20T07:25:33;4.23;;;3.90;;
16393;SDS011;8306;51.128;4.476;2023-07-20T07:28:00;3.33;;;3.13;;
16393;SDS011;8306;51.128;4.476;2023-07-20T07:30:26;3.60;;;3.40;;
16393;SDS011;8306;51.128;4.476;2023-07-20T07:32:53;3.77;;;3.40;;
16393;SDS011;8306;51.128;4.476;2023-07-20T07:35:19;3.10;;;2.80;;
16393;SDS011;8306;51.128;4.476;2023-07-20T07:37:46;2.37;;;2.27;;
16393;SDS011;8306;51.128;4.476;2023-07-20T07:40:12;2.40;;;2.20;;
16393;SDS011;8306;51.128;4.476;2023-07-20T07:42:39;2.93;;;2.73;;
16393;SDS011;8306;51.128;4.476;2023-07-20T07:45:06;3.40;;;3.20;;
16393;SDS011;8306;51.128;4.476;2023-07-20T07:47:32;2.80;;;2.60;;
16393;SDS011;8306;51.128;4.476;2023-07-20T07:49:59;2.83;;;2.63;;
16393;SDS011;8306;51.128;4.476;2023-07-20T07:52:25;2.93;;;2.73;;
16393;SDS011;8306;51.128;4.476;2023-07-20T07:54:52;2.80;;;2.63;;
16393;SDS011;8306;51.128;4.476;2023-07-20T07:57:18;3.03;;;2.87;;
16393;SDS011;8306;51.128;4.476;2023-07-20T07:59:45;2.60;;;2.43;;
16393;SDS011;8306;51.128;4.476;2023-07-20T08:02:11;2.70;;;2.50;;
16393;SDS011;8306;51.128;4.476;2023-07-20T08:04:38;2.10;;;2.00;;
16393;SDS011;8306;51.128;4.476;2023-07-20T08:07:04;1.63;;;1.40;;
16393;SDS011;8306;51.128;4.476;2023-07-20T08:09:31;2.40;;;1.77;;
16393;SDS011;8306;51.128;4.476;2023-07-20T08:11:57;2.10;;;1.90;;
16393;SDS011;8306;51.128;4.476;2023-07-20T08:14:24;2.00;;;1.90;;
16393;SDS011;8306;51.128;4.476;2023-07-20T08:16:50;2.43;;;2.00;;
16393;SDS011;8306;51.128;4.476;2023-07-20T08:19:16;2.13;;;1.60;;
16393;SDS011;8306;51.128;4.476;2023-07-20T08:21:43;1.70;;;1.60;;
16393;SDS011;8306;51.128;4.476;2023-07-20T08:24:09;1.60;;;1.50;;
16393;SDS011;8306;51.128;4.476;2023-07-20T08:26:36;1.40;;;1.30;;
16393;SDS011;8306;51.128;4.476;2023-07-20T08:29:02;1.60;;;1.50;;
16393;SDS011;8306;51.128;4.476;2023-07-20T08:31:29;1.80;;;1.70;;
16393;SDS011;8306;51.128;4.476;2023-07-20T08:33:55;1.40;;;1.30;;
16393;SDS011;8306;51.128;4.476;2023-07-20T08:36:22;2.12;;;1.80;;
16393;SDS011;8306;51.128;4.476;2023-07-20T08:38:48;1.77;;;1.65;;
16393;SDS011;8306;51.128;4.476;2023-07-20T08:41:15;1.30;;;1.20;;
16393;SDS011;8306;51.128;4.476;2023-07-20T08:43:42;1.70;;;1.60;;
16393;SDS011;8306;51.128;4.476;2023-07-20T08:46:08;2.22;;;2.10;;
16393;SDS011;8306;51.128;4.476;2023-07-20T08:48:34;2.10;;;2.00;;
16393;SDS011;8306;51.128;4.476;2023-07-20T08:51:01;2.00;;;1.90;;
16393;SDS011;8306;51.128;4.476;2023-07-20T08:53:27;2.05;;;1.95;;
16393;SDS011;8306;51.128;4.476;2023-07-20T08:55:54;2.67;;;2.03;;
16393;SDS011;8306;51.128;4.476;2023-07-20T08:58:20;1.73;;;1.60;;
16393;SDS011;8306;51.128;4.476;2023-07-20T09:00:47;1.62;;;1.42;;
16393;SDS011;8306;51.128;4.476;2023-07-20T09:03:13;1.58;;;1.48;;
16393;SDS011;8306;51.128;4.476;2023-07-20T09:05:40;2.00;;;1.80;;
16393;SDS011;8306;51.128;4.476;2023-07-20T09:08:06;1.40;;;1.40;;
16393;SDS011;8306;51.128;4.476;2023-07-20T09:10:33;1.60;;;1.50;;
16393;SDS011;8306;51.128;4.476;2023-07-20T09:12:59;2.12;;;1.58;;
16393;SDS011;8306;51.128;4.476;2023-07-20T09:15:25;1.50;;;1.40;;
16393;SDS011;8306;51.128;4.476;2023-07-20T09:17:52;1.50;;;1.40;;
16393;SDS011;8306;51.128;4.476;2023-07-20T09:20:19;1.15;;;1.02;;
16393;SDS011;8306;51.128;4.476;2023-07-20T09:22:45;1.50;;;1.40;;
16393;SDS011;8306;51.128;4.476;2023-07-20T09:25:15;1.42;;;1.33;;
16393;SDS011;8306;51.128;4.476;2023-07-20T09:27:45;1.65;;;1.30;;
16393;SDS011;8306;51.128;4.476;2023-07-20T09:30:10;1.50;;;1.30;;
16393;SDS011;8306;51.128;4.476;2023-07-20T09:32:40;1.58;;;1.48;;
16393;SDS011;8306;51.128;4.476;2023-07-20T09:35:06;2.22;;;1.75;;
16393;SDS011;8306;51.128;4.476;2023-07-20T09:37:33;1.55;;;1.45;;
16393;SDS011;8306;51.128;4.476;2023-07-20T09:39:59;1.70;;;1.60;;
16393;SDS011;8306;51.128;4.476;2023-07-20T09:42:25;1.93;;;1.83;;
16393;SDS011;8306;51.128;4.476;2023-07-20T09:44:51;1.70;;;1.60;;
16393;SDS011;8306;51.128;4.476;2023-07-20T09:47:24;1.30;;;1.30;;
16393;SDS011;8306;51.128;4.476;2023-07-20T09:49:54;1.40;;;1.30;;
16393;SDS011;8306;51.128;4.476;2023-07-20T09:52:17;2.47;;;1.40;;
16393;SDS011;8306;51.128;4.476;2023-07-20T09:54:44;1.27;;;1.17;;
16393;SDS011;8306;51.128;4.476;2023-07-20T09:57:11;1.70;;;1.30;;
16393;SDS011;8306;51.128;4.476;2023-07-20T09:59:36;1.27;;;1.10;;
16393;SDS011;8306;51.128;4.476;2023-07-20T10:02:04;1.40;;;1.30;;
16393;SDS011;8306;51.128;4.476;2023-07-20T10:04:29;1.20;;;1.10;;
16393;SDS011;8306;51.128;4.476;2023-07-20T10:06:56;1.30;;;1.20;;
16393;SDS011;8306;51.128;4.476;2023-07-20T10:09:22;1.60;;;1.50;;
16393;SDS011;8306;51.128;4.476;2023-07-20T10:11:49;1.50;;;1.40;;
16393;SDS011;8306;51.128;4.476;2023-07-20T10:14:16;1.33;;;1.23;;
16393;SDS011;8306;51.128;4.476;2023-07-20T10:19:33;1.20;;;1.10;;
16393;SDS011;8306;51.128;4.476;2023-07-20T10:22:10;1.77;;;1.30;;
16393;SDS011;8306;51.128;4.476;2023-07-20T10:24:35;1.20;;;1.13;;
16393;SDS011;8306;51.128;4.476;2023-07-20T10:27:01;1.20;;;1.10;;
16393;SDS011;8306;51.128;4.476;2023-07-20T10:29:28;1.70;;;1.10;;
16393;SDS011;8306;51.128;4.476;2023-07-20T10:31:54;1.37;;;1.20;;
16393;SDS011;8306;51.128;4.476;2023-07-20T10:34:21;1.17;;;0.90;;
16393;SDS011;8306;51.128;4.476;2023-07-20T10:36:47;1.87;;;1.10;;
16393;SDS011;8306;51.128;4.476;2023-07-20T10:39:22;1.73;;;0.90;;
16393;SDS011;8306;51.128;4.476;2023-07-20T10:41:57;2.73;;;1.03;;
16393;SDS011;8306;51.128;4.476;2023-07-20T10:44:19;0.90;;;0.90;;
16393;SDS011;8306;51.128;4.476;2023-07-20T10:46:44;1.20;;;1.10;;
16393;SDS011;8306;51.128;4.476;2023-07-20T10:49:13;1.27;;;1.00;;
16393;SDS011;8306;51.128;4.476;2023-07-20T10:51:43;0.80;;;0.80;;
16393;SDS011;8306;51.128;4.476;2023-07-20T10:56:44;0.67;;;0.67;;
16393;SDS011;8306;51.128;4.476;2023-07-20T10:59:19;3.13;;;1.33;;
16393;SDS011;8306;51.128;4.476;2023-07-20T11:01:43;1.07;;;0.50;;
16393;SDS011;8306;51.128;4.476;2023-07-20T11:04:09;0.93;;;0.50;;
16393;SDS011;8306;51.128;4.476;2023-07-20T11:06:36;0.77;;;0.60;;
16393;SDS011;8306;51.128;4.476;2023-07-20T11:11:33;0.60;;;0.50;;
16393;SDS011;8306;51.128;4.476;2023-07-20T11:13:59;0.50;;;0.50;;
16393;SDS011;8306;51.128;4.476;2023-07-20T11:16:32;0.40;;;0.40;;
16393;SDS011;8306;51.128;4.476;2023-07-20T11:19:16;0.50;;;0.50;;
16393;SDS011;8306;51.128;4.476;2023-07-20T11:21:45;2.37;;;0.73;;
16393;SDS011;8306;51.128;4.476;2023-07-20T11:24:10;1.33;;;0.60;;
16393;SDS011;8306;51.128;4.476;2023-07-20T11:26:47;0.50;;;0.50;;
16393;SDS011;8306;51.128;4.476;2023-07-20T11:29:13;0.73;;;0.50;;
16393;SDS011;8306;51.128;4.476;2023-07-20T11:31:39;1.77;;;0.67;;
16393;SDS011;8306;51.128;4.476;2023-07-20T11:34:06;1.10;;;0.60;;
16393;SDS011;8306;51.128;4.476;2023-07-20T11:36:33;1.30;;;0.50;;
16393;SDS011;8306;51.128;4.476;2023-07-20T11:38:58;1.13;;;0.50;;
16393;SDS011;8306;51.128;4.476;2023-07-20T11:41:25;0.90;;;0.67;;
16393;SDS011;8306;51.128;4.476;2023-07-20T11:43:51;0.93;;;0.50;;
16393;SDS011;8306;51.128;4.476;2023-07-20T11:46:18;0.50;;;0.50;;
16393;SDS011;8306;51.128;4.476;2023-07-20T11:48:44;1.43;;;0.50;;
16393;SDS011;8306;51.128;4.476;2023-07-20T11:51:14;0.70;;;0.40;;
16393;SDS011;8306;51.128;4.476;2023-07-20T11:53:40;0.93;;;0.50;;
16393;SDS011;8306;51.128;4.476;2023-07-20T11:56:06;0.70;;;0.70;;
16393;SDS011;8306;51.128;4.476;2023-07-20T11:58:33;0.60;;;0.60;;
16393;SDS011;8306;51.128;4.476;2023-07-20T12:00:59;0.50;;;0.50;;
16393;SDS011;8306;51.128;4.476;2023-07-20T12:03:26;1.27;;;0.50;;
16393;SDS011;8306;51.128;4.476;2023-07-20T12:05:52;0.60;;;0.50;;
16393;SDS011;8306;51.128;4.476;2023-07-20T12:08:19;0.53;;;0.53;;
16393;SDS011;8306;51.128;4.476;2023-07-20T12:10:45;0.50;;;0.50;;
16393;SDS011;8306;51.128;4.476;2023-07-20T12:13:12;1.23;;;0.50;;
16393;SDS011;8306;51.128;4.476;2023-07-20T12:15:38;0.60;;;0.43;;
16393;SDS011;8306;51.128;4.476;2023-07-20T12:18:05;0.40;;;0.40;;
16393;SDS011;8306;51.128;4.476;2023-07-20T12:20:32;0.40;;;0.40;;
16393;SDS011;8306;51.128;4.476;2023-07-20T12:23:01;0.50;;;0.50;;
16393;SDS011;8306;51.128;4.476;2023-07-20T12:25:40;0.67;;;0.63;;
16393;SDS011;8306;51.128;4.476;2023-07-20T12:28:13;0.50;;;0.50;;
16393;SDS011;8306;51.128;4.476;2023-07-20T12:30:38;0.50;;;0.50;;
16393;SDS011;8306;51.128;4.476;2023-07-20T12:33:04;0.73;;;0.50;;
16393;SDS011;8306;51.128;4.476;2023-07-20T12:35:31;0.40;;;0.40;;
16393;SDS011;8306;51.128;4.476;2023-07-20T12:37:57;1.53;;;0.40;;
16393;SDS011;8306;51.128;4.476;2023-07-20T12:40:24;0.97;;;0.50;;
16393;SDS011;8306;51.128;4.476;2023-07-20T12:42:50;2.10;;;0.60;;
16393;SDS011;8306;51.128;4.476;2023-07-20T12:45:17;0.50;;;0.50;;
16393;SDS011;8306;51.128;4.476;2023-07-20T12:47:43;0.60;;;0.60;;
16393;SDS011;8306;51.128;4.476;2023-07-20T12:50:10;0.70;;;0.70;;
16393;SDS011;8306;51.128;4.476;2023-07-20T12:52:36;1.40;;;0.70;;
16393;SDS011;8306;51.128;4.476;2023-07-20T12:55:04;0.73;;;0.73;;
16393;SDS011;8306;51.128;4.476;2023-07-20T12:57:30;1.40;;;0.80;;
16393;SDS011;8306;51.128;4.476;2023-07-20T12:59:56;0.93;;;0.60;;
16393;SDS011;8306;51.128;4.476;2023-07-20T13:02:23;0.60;;;0.60;;
16393;SDS011;8306;51.128;4.476;2023-07-20T13:04:49;1.10;;;0.77;;
16393;SDS011;8306;51.128;4.476;2023-07-20T13:07:16;0.50;;;0.50;;
16393;SDS011;8306;51.128;4.476;2023-07-20T13:09:42;1.83;;;0.80;;
16393;SDS011;8306;51.128;4.476;2023-07-20T13:12:08;0.80;;;0.70;;
16393;SDS011;8306;51.128;4.476;2023-07-20T13:14:35;0.80;;;0.77;;
16393;SDS011;8306;51.128;4.476;2023-07-20T13:17:01;1.40;;;0.90;;
16393;SDS011;8306;51.128;4.476;2023-07-20T13:19:28;2.87;;;0.80;;
16393;SDS011;8306;51.128;4.476;2023-07-20T13:21:54;0.77;;;0.77;;
16393;SDS011;8306;51.128;4.476;2023-07-20T13:27:42;1.03;;;0.80;;
16393;SDS011;8306;51.128;4.476;2023-07-20T13:30:09;1.10;;;1.00;;
16393;SDS011;8306;51.128;4.476;2023-07-20T13:32:36;0.80;;;0.80;;
16393;SDS011;8306;51.128;4.476;2023-07-20T13:35:02;0.80;;;0.80;;
16393;SDS011;8306;51.128;4.476;2023-07-20T13:37:28;0.90;;;0.90;;
16393;SDS011;8306;51.128;4.476;2023-07-20T13:39:55;1.17;;;1.00;;
16393;SDS011;8306;51.128;4.476;2023-07-20T13:42:21;0.73;;;0.73;;
16393;SDS011;8306;51.128;4.476;2023-07-20T13:44:48;0.80;;;0.80;;
16393;SDS011;8306;51.128;4.476;2023-07-20T13:47:14;0.80;;;0.80;;
16393;SDS011;8306;51.128;4.476;2023-07-20T13:49:41;0.70;;;0.70;;
16393;SDS011;8306;51.128;4.476;2023-07-20T13:52:07;1.43;;;0.80;;
16393;SDS011;8306;51.128;4.476;2023-07-20T13:54:34;1.00;;;0.90;;
16393;SDS011;8306;51.128;4.476;2023-07-20T14:02:06;2.10;;;1.00;;
16393;SDS011;8306;51.128;4.476;2023-07-20T14:04:33;1.10;;;1.03;;
16393;SDS011;8306;51.128;4.476;2023-07-20T14:06:59;4.97;;;1.20;;
16393;SDS011;8306;51.128;4.476;2023-07-20T14:09:26;2.60;;;1.30;;
16393;SDS011;8306;51.128;4.476;2023-07-20T14:11:52;1.13;;;1.03;;
16393;SDS011;8306;51.128;4.476;2023-07-20T14:14:18;1.80;;;1.00;;
16393;SDS011;8306;51.128;4.476;2023-07-20T14:16:45;1.13;;;1.07;;
16393;SDS011;8306;51.128;4.476;2023-07-20T14:19:11;1.20;;;1.10;;
16393;SDS011;8306;51.128;4.476;2023-07-20T14:21:38;1.97;;;1.20;;
16393;SDS011;8306;51.128;4.476;2023-07-20T14:24:04;3.17;;;1.40;;
16393;SDS011;8306;51.128;4.476;2023-07-20T14:26:31;1.10;;;1.10;;
16393;SDS011;8306;51.128;4.476;2023-07-20T14:28:57;1.30;;;1.20;;
16393;SDS011;8306;51.128;4.476;2023-07-20T14:31:24;1.47;;;1.40;;
16393;SDS011;8306;51.128;4.476;2023-07-20T14:33:50;5.03;;;1.80;;
16393;SDS011;8306;51.128;4.476;2023-07-20T14:36:17;1.30;;;1.20;;
16393;SDS011;8306;51.128;4.476;2023-07-20T14:38:43;1.27;;;1.17;;
16393;SDS011;8306;51.128;4.476;2023-07-20T14:41:10;1.03;;;1.00;;
16393;SDS011;8306;51.128;4.476;2023-07-20T14:43:36;1.10;;;1.00;;
16393;SDS011;8306;51.128;4.476;2023-07-20T14:46:03;1.40;;;1.23;;
16393;SDS011;8306;51.128;4.476;2023-07-20T14:48:29;2.00;;;1.17;;
16393;SDS011;8306;51.128;4.476;2023-07-20T14:50:56;1.60;;;1.50;;
16393;SDS011;8306;51.128;4.476;2023-07-20T14:53:22;1.00;;;1.00;;
16393;SDS011;8306;51.128;4.476;2023-07-20T14:55:49;1.90;;;1.00;;
16393;SDS011;8306;51.128;4.476;2023-07-20T14:58:15;1.00;;;1.00;;
16393;SDS011;8306;51.128;4.476;2023-07-20T15:00:41;1.63;;;1.50;;
16393;SDS011;8306;51.128;4.476;2023-07-20T15:03:08;1.13;;;1.10;;
16393;SDS011;8306;51.128;4.476;2023-07-20T15:05:34;1.43;;;1.10;;
16393;SDS011;8306;51.128;4.476;2023-07-20T15:08:01;1.70;;;1.60;;
16393;SDS011;8306;51.128;4.476;2023-07-20T15:10:28;1.30;;;1.20;;
16393;SDS011;8306;51.128;4.476;2023-07-20T15:12:54;1.57;;;1.47;;
16393;SDS011;8306;51.128;4.476;2023-07-20T15:15:20;3.23;;;1.47;;
16393;SDS011;8306;51.128;4.476;2023-07-20T15:17:47;1.93;;;1.40;;
16393;SDS011;8306;51.128;4.476;2023-07-20T15:20:13;2.07;;;1.40;;